sensor_id;sensor_type;location;lat;lon;timestamp;P1;durP1;ratioP1;P2;durP2;ratioP2
12892;SDS011;6514;48.606;9.222;2024-01-10T00:00:46;17.43;;;11.33;;
12892;SDS011;6514;48.606;9.222;2024-01-10T00:03:13;20.47;;;12.50;;
12892;SDS011;6514;48.606;9.222;2024-01-10T00:05:40;18.13;;;11.53;;
12892;SDS011;6514;48.606;9.222;2024-01-10T00:08:06;24.47;;;11.53;;
12892;SDS011;6514;48.606;9.222;2024-01-10T00:10:33;21.10;;;12.20;;
12892;SDS011;6514;48.606;9.222;2024-01-10T00:13:00;21.33;;;11.30;;
12892;SDS011;6514;48.606;9.222;2024-01-10T00:15:28;19.37;;;11.10;;
12892;SDS011;6514;48.606;9.222;2024-01-10T00:17:55;17.93;;;10.50;;
12892;SDS011;6514;48.606;9.222;2024-01-10T00:20:22;19.53;;;10.77;;
12892;SDS011;6514;48.606;9.222;2024-01-10T00:22:49;17.57;;;9.97;;
12892;SDS011;6514;48.606;9.222;2024-01-10T00:25:15;18.33;;;9.40;;
12892;SDS011;6514;48.606;9.222;2024-01-10T00:27:42;15.30;;;9.40;;
12892;SDS011;6514;48.606;9.222;2024-01-10T00:30:09;19.13;;;9.17;;
12892;SDS011;6514;48.606;9.222;2024-01-10T00:32:38;15.77;;;9.07;;
12892;SDS011;6514;48.606;9.222;2024-01-10T00:35:04;15.23;;;9.63;;
12892;SDS011;6514;48.606;9.222;2024-01-10T00:37:31;15.43;;;9.27;;
12892;SDS011;6514;48.606;9.222;2024-01-10T00:39:58;18.63;;;9.90;;
12892;SDS011;6514;48.606;9.222;2024-01-10T00:42:25;21.07;;;10.43;;
12892;SDS011;6514;48.606;9.222;2024-01-10T00:44:52;17.13;;;9.83;;
12892;SDS011;6514;48.606;9.222;2024-01-10T00:47:18;20.27;;;9.27;;
12892;SDS011;6514;48.606;9.222;2024-01-10T00:49:47;18.37;;;9.30;;
12892;SDS011;6514;48.606;9.222;2024-01-10T00:52:13;21.77;;;12.37;;
12892;SDS011;6514;48.606;9.222;2024-01-10T00:54:40;22.30;;;12.47;;
12892;SDS011;6514;48.606;9.222;2024-01-10T00:57:09;23.83;;;12.40;;
12892;SDS011;6514;48.606;9.222;2024-01-10T00:59:35;24.57;;;12.73;;
12892;SDS011;6514;48.606;9.222;2024-01-10T01:02:02;25.20;;;12.90;;
12892;SDS011;6514;48.606;9.222;2024-01-10T01:04:29;22.33;;;12.23;;
12892;SDS011;6514;48.606;9.222;2024-01-10T01:06:57;23.43;;;11.50;;
12892;SDS011;6514;48.606;9.222;2024-01-10T01:09:24;21.67;;;12.27;;
12892;SDS011;6514;48.606;9.222;2024-01-10T01:11:51;24.53;;;12.63;;
12892;SDS011;6514;48.606;9.222;2024-01-10T01:14:18;22.70;;;12.13;;
12892;SDS011;6514;48.606;9.222;2024-01-10T01:16:45;23.33;;;12.57;;
12892;SDS011;6514;48.606;9.222;2024-01-10T01:19:12;23.37;;;12.53;;
12892;SDS011;6514;48.606;9.222;2024-01-10T01:21:38;23.73;;;12.53;;
12892;SDS011;6514;48.606;9.222;2024-01-10T01:24:06;24.23;;;12.53;;
12892;SDS011;6514;48.606;9.222;2024-01-10T01:26:33;23.57;;;12.47;;
12892;SDS011;6514;48.606;9.222;2024-01-10T01:29:00;20.20;;;11.57;;
12892;SDS011;6514;48.606;9.222;2024-01-10T01:31:27;20.03;;;11.87;;
12892;SDS011;6514;48.606;9.222;2024-01-10T01:33:54;21.57;;;12.33;;
12892;SDS011;6514;48.606;9.222;2024-01-10T01:36:20;20.53;;;12.00;;
12892;SDS011;6514;48.606;9.222;2024-01-10T01:38:47;21.33;;;12.23;;
12892;SDS011;6514;48.606;9.222;2024-01-10T01:41:15;23.13;;;12.83;;
12892;SDS011;6514;48.606;9.222;2024-01-10T01:43:43;20.97;;;11.70;;
12892;SDS011;6514;48.606;9.222;2024-01-10T01:46:11;18.80;;;10.90;;
12892;SDS011;6514;48.606;9.222;2024-01-10T01:48:38;13.47;;;8.97;;
12892;SDS011;6514;48.606;9.222;2024-01-10T01:51:05;16.33;;;9.97;;
12892;SDS011;6514;48.606;9.222;2024-01-10T01:53:33;20.57;;;10.87;;
12892;SDS011;6514;48.606;9.222;2024-01-10T01:56:02;23.33;;;11.67;;
12892;SDS011;6514;48.606;9.222;2024-01-10T01:58:33;22.67;;;11.97;;
12892;SDS011;6514;48.606;9.222;2024-01-10T02:01:00;17.50;;;10.70;;
12892;SDS011;6514;48.606;9.222;2024-01-10T02:03:28;19.00;;;11.10;;
12892;SDS011;6514;48.606;9.222;2024-01-10T02:05:56;22.60;;;10.97;;
12892;SDS011;6514;48.606;9.222;2024-01-10T02:08:28;18.00;;;10.63;;
12892;SDS011;6514;48.606;9.222;2024-01-10T02:10:55;18.87;;;10.37;;
12892;SDS011;6514;48.606;9.222;2024-01-10T02:13:22;17.57;;;9.37;;
12892;SDS011;6514;48.606;9.222;2024-01-10T02:15:50;20.07;;;10.13;;
12892;SDS011;6514;48.606;9.222;2024-01-10T02:18:18;19.73;;;10.37;;
12892;SDS011;6514;48.606;9.222;2024-01-10T02:20:44;17.57;;;10.37;;
12892;SDS011;6514;48.606;9.222;2024-01-10T02:23:12;17.63;;;10.67;;
12892;SDS011;6514;48.606;9.222;2024-01-10T02:25:41;21.17;;;11.00;;
12892;SDS011;6514;48.606;9.222;2024-01-10T02:28:08;18.90;;;11.10;;
12892;SDS011;6514;48.606;9.222;2024-01-10T02:30:35;17.30;;;10.37;;
12892;SDS011;6514;48.606;9.222;2024-01-10T02:33:02;21.63;;;11.57;;
12892;SDS011;6514;48.606;9.222;2024-01-10T02:35:29;22.37;;;11.77;;
12892;SDS011;6514;48.606;9.222;2024-01-10T02:37:58;18.70;;;11.50;;
12892;SDS011;6514;48.606;9.222;2024-01-10T02:40:25;21.97;;;11.47;;
12892;SDS011;6514;48.606;9.222;2024-01-10T02:42:53;19.20;;;11.47;;
12892;SDS011;6514;48.606;9.222;2024-01-10T02:45:20;18.50;;;10.47;;
12892;SDS011;6514;48.606;9.222;2024-01-10T02:47:47;19.20;;;10.93;;
12892;SDS011;6514;48.606;9.222;2024-01-10T02:50:13;29.90;;;12.40;;
12892;SDS011;6514;48.606;9.222;2024-01-10T02:52:41;21.33;;;12.10;;
12892;SDS011;6514;48.606;9.222;2024-01-10T02:55:08;21.40;;;11.07;;
12892;SDS011;6514;48.606;9.222;2024-01-10T02:57:35;26.07;;;11.83;;
12892;SDS011;6514;48.606;9.222;2024-01-10T03:00:03;21.77;;;11.53;;
12892;SDS011;6514;48.606;9.222;2024-01-10T03:02:34;21.47;;;11.53;;
12892;SDS011;6514;48.606;9.222;2024-01-10T03:05:01;19.33;;;10.97;;
12892;SDS011;6514;48.606;9.222;2024-01-10T03:07:28;21.57;;;11.07;;
12892;SDS011;6514;48.606;9.222;2024-01-10T03:09:57;18.30;;;10.10;;
12892;SDS011;6514;48.606;9.222;2024-01-10T03:12:24;20.47;;;11.83;;
12892;SDS011;6514;48.606;9.222;2024-01-10T03:14:51;21.00;;;11.50;;
12892;SDS011;6514;48.606;9.222;2024-01-10T03:17:19;19.17;;;10.77;;
12892;SDS011;6514;48.606;9.222;2024-01-10T03:19:45;20.77;;;11.30;;
12892;SDS011;6514;48.606;9.222;2024-01-10T03:22:15;22.80;;;11.60;;
12892;SDS011;6514;48.606;9.222;2024-01-10T03:24:42;19.73;;;11.27;;
12892;SDS011;6514;48.606;9.222;2024-01-10T03:27:09;20.57;;;11.23;;
12892;SDS011;6514;48.606;9.222;2024-01-10T03:29:36;25.53;;;12.10;;
12892;SDS011;6514;48.606;9.222;2024-01-10T03:32:03;18.77;;;10.90;;
12892;SDS011;6514;48.606;9.222;2024-01-10T03:34:31;22.37;;;11.17;;
12892;SDS011;6514;48.606;9.222;2024-01-10T03:36:58;18.67;;;11.00;;
12892;SDS011;6514;48.606;9.222;2024-01-10T03:39:25;21.17;;;11.90;;
12892;SDS011;6514;48.606;9.222;2024-01-10T03:41:52;23.67;;;11.60;;
12892;SDS011;6514;48.606;9.222;2024-01-10T03:44:18;20.23;;;11.40;;
12892;SDS011;6514;48.606;9.222;2024-01-10T03:46:45;21.00;;;10.60;;
12892;SDS011;6514;48.606;9.222;2024-01-10T03:49:12;20.30;;;10.93;;
12892;SDS011;6514;48.606;9.222;2024-01-10T03:51:40;18.27;;;10.80;;
12892;SDS011;6514;48.606;9.222;2024-01-10T03:54:07;21.07;;;12.30;;
12892;SDS011;6514;48.606;9.222;2024-01-10T03:56:34;24.77;;;12.33;;
12892;SDS011;6514;48.606;9.222;2024-01-10T03:59:06;24.73;;;12.13;;
12892;SDS011;6514;48.606;9.222;2024-01-10T04:01:37;20.87;;;11.63;;
12892;SDS011;6514;48.606;9.222;2024-01-10T04:04:05;21.13;;;12.00;;
12892;SDS011;6514;48.606;9.222;2024-01-10T04:06:31;23.60;;;11.23;;
12892;SDS011;6514;48.606;9.222;2024-01-10T04:09:01;19.77;;;11.07;;
12892;SDS011;6514;48.606;9.222;2024-01-10T04:11:28;19.20;;;11.20;;
12892;SDS011;6514;48.606;9.222;2024-01-10T04:13:54;17.07;;;10.53;;
12892;SDS011;6514;48.606;9.222;2024-01-10T04:16:21;20.43;;;11.53;;
12892;SDS011;6514;48.606;9.222;2024-01-10T04:18:48;20.93;;;10.67;;
12892;SDS011;6514;48.606;9.222;2024-01-10T04:21:15;23.23;;;11.57;;
12892;SDS011;6514;48.606;9.222;2024-01-10T04:23:42;20.73;;;11.23;;
12892;SDS011;6514;48.606;9.222;2024-01-10T04:26:10;23.73;;;10.97;;
12892;SDS011;6514;48.606;9.222;2024-01-10T04:28:36;18.53;;;10.43;;
12892;SDS011;6514;48.606;9.222;2024-01-10T04:31:06;18.73;;;10.17;;
12892;SDS011;6514;48.606;9.222;2024-01-10T04:33:35;19.43;;;11.53;;
12892;SDS011;6514;48.606;9.222;2024-01-10T04:36:02;16.67;;;10.63;;
12892;SDS011;6514;48.606;9.222;2024-01-10T04:38:29;17.33;;;10.87;;
12892;SDS011;6514;48.606;9.222;2024-01-10T04:40:59;17.33;;;11.27;;
12892;SDS011;6514;48.606;9.222;2024-01-10T04:43:27;18.07;;;10.33;;
12892;SDS011;6514;48.606;9.222;2024-01-10T04:45:54;21.50;;;11.07;;
12892;SDS011;6514;48.606;9.222;2024-01-10T04:48:24;16.50;;;10.40;;
12892;SDS011;6514;48.606;9.222;2024-01-10T04:50:50;19.27;;;10.93;;
12892;SDS011;6514;48.606;9.222;2024-01-10T04:53:17;19.63;;;10.20;;
12892;SDS011;6514;48.606;9.222;2024-01-10T04:55:44;16.47;;;10.10;;
12892;SDS011;6514;48.606;9.222;2024-01-10T04:58:11;17.63;;;10.00;;
12892;SDS011;6514;48.606;9.222;2024-01-10T05:00:39;19.83;;;10.90;;
12892;SDS011;6514;48.606;9.222;2024-01-10T05:03:06;16.97;;;10.83;;
12892;SDS011;6514;48.606;9.222;2024-01-10T05:05:33;20.80;;;11.17;;
12892;SDS011;6514;48.606;9.222;2024-01-10T05:08:00;20.57;;;11.40;;
12892;SDS011;6514;48.606;9.222;2024-01-10T05:10:27;20.07;;;10.63;;
12892;SDS011;6514;48.606;9.222;2024-01-10T05:12:54;18.40;;;10.87;;
12892;SDS011;6514;48.606;9.222;2024-01-10T05:15:21;18.10;;;10.73;;
12892;SDS011;6514;48.606;9.222;2024-01-10T05:17:49;16.67;;;10.33;;
12892;SDS011;6514;48.606;9.222;2024-01-10T05:20:17;19.07;;;10.80;;
12892;SDS011;6514;48.606;9.222;2024-01-10T05:22:44;18.20;;;10.70;;
12892;SDS011;6514;48.606;9.222;2024-01-10T05:25:11;18.47;;;10.63;;
12892;SDS011;6514;48.606;9.222;2024-01-10T05:27:38;18.37;;;10.90;;
12892;SDS011;6514;48.606;9.222;2024-01-10T05:30:05;20.47;;;11.00;;
12892;SDS011;6514;48.606;9.222;2024-01-10T05:32:33;19.27;;;11.37;;
12892;SDS011;6514;48.606;9.222;2024-01-10T05:35:01;21.53;;;11.00;;
12892;SDS011;6514;48.606;9.222;2024-01-10T05:37:30;21.27;;;11.33;;
12892;SDS011;6514;48.606;9.222;2024-01-10T05:39:58;20.57;;;10.37;;
12892;SDS011;6514;48.606;9.222;2024-01-10T05:42:24;22.17;;;11.77;;
12892;SDS011;6514;48.606;9.222;2024-01-10T05:44:51;23.77;;;10.67;;
12892;SDS011;6514;48.606;9.222;2024-01-10T05:47:18;20.37;;;11.47;;
12892;SDS011;6514;48.606;9.222;2024-01-10T05:49:45;21.00;;;10.67;;
12892;SDS011;6514;48.606;9.222;2024-01-10T05:52:13;24.17;;;12.57;;
12892;SDS011;6514;48.606;9.222;2024-01-10T05:54:40;19.90;;;10.53;;
12892;SDS011;6514;48.606;9.222;2024-01-10T05:57:07;19.43;;;10.50;;
12892;SDS011;6514;48.606;9.222;2024-01-10T05:59:33;18.27;;;10.37;;
12892;SDS011;6514;48.606;9.222;2024-01-10T06:02:01;18.63;;;10.67;;
12892;SDS011;6514;48.606;9.222;2024-01-10T06:04:29;20.33;;;11.23;;
12892;SDS011;6514;48.606;9.222;2024-01-10T06:06:59;16.17;;;10.33;;
12892;SDS011;6514;48.606;9.222;2024-01-10T06:09:27;21.43;;;11.20;;
12892;SDS011;6514;48.606;9.222;2024-01-10T06:11:54;18.87;;;10.53;;
12892;SDS011;6514;48.606;9.222;2024-01-10T06:14:21;17.67;;;10.03;;
12892;SDS011;6514;48.606;9.222;2024-01-10T06:16:50;22.37;;;11.03;;
12892;SDS011;6514;48.606;9.222;2024-01-10T06:19:17;16.40;;;10.33;;
12892;SDS011;6514;48.606;9.222;2024-01-10T06:21:44;18.60;;;10.63;;
12892;SDS011;6514;48.606;9.222;2024-01-10T06:24:11;14.50;;;9.77;;
12892;SDS011;6514;48.606;9.222;2024-01-10T06:26:39;17.43;;;9.83;;
12892;SDS011;6514;48.606;9.222;2024-01-10T06:29:06;17.67;;;9.60;;
12892;SDS011;6514;48.606;9.222;2024-01-10T06:31:33;17.23;;;9.63;;
12892;SDS011;6514;48.606;9.222;2024-01-10T06:34:00;15.47;;;9.63;;
12892;SDS011;6514;48.606;9.222;2024-01-10T06:36:26;19.23;;;10.57;;
12892;SDS011;6514;48.606;9.222;2024-01-10T06:38:53;20.33;;;10.87;;
12892;SDS011;6514;48.606;9.222;2024-01-10T06:41:24;16.50;;;9.70;;
12892;SDS011;6514;48.606;9.222;2024-01-10T06:43:53;17.03;;;10.00;;
12892;SDS011;6514;48.606;9.222;2024-01-10T06:46:20;20.60;;;10.87;;
12892;SDS011;6514;48.606;9.222;2024-01-10T06:48:47;18.63;;;10.90;;
12892;SDS011;6514;48.606;9.222;2024-01-10T06:51:15;18.80;;;10.50;;
12892;SDS011;6514;48.606;9.222;2024-01-10T06:53:42;23.30;;;11.10;;
12892;SDS011;6514;48.606;9.222;2024-01-10T06:56:09;19.90;;;10.80;;
12892;SDS011;6514;48.606;9.222;2024-01-10T06:58:39;22.10;;;10.47;;
12892;SDS011;6514;48.606;9.222;2024-01-10T07:01:12;17.13;;;9.97;;
12892;SDS011;6514;48.606;9.222;2024-01-10T07:03:39;19.50;;;10.13;;
12892;SDS011;6514;48.606;9.222;2024-01-10T07:06:06;17.87;;;10.10;;
12892;SDS011;6514;48.606;9.222;2024-01-10T07:08:32;20.40;;;10.17;;
12892;SDS011;6514;48.606;9.222;2024-01-10T07:11:03;20.67;;;10.87;;
12892;SDS011;6514;48.606;9.222;2024-01-10T07:13:30;18.63;;;10.87;;
12892;SDS011;6514;48.606;9.222;2024-01-10T07:15:57;18.20;;;10.80;;
12892;SDS011;6514;48.606;9.222;2024-01-10T07:18:28;17.93;;;10.90;;
12892;SDS011;6514;48.606;9.222;2024-01-10T07:20:55;18.53;;;10.10;;
12892;SDS011;6514;48.606;9.222;2024-01-10T07:23:22;18.10;;;10.63;;
12892;SDS011;6514;48.606;9.222;2024-01-10T07:25:49;18.60;;;10.13;;
12892;SDS011;6514;48.606;9.222;2024-01-10T07:28:15;20.70;;;10.60;;
12892;SDS011;6514;48.606;9.222;2024-01-10T07:30:42;29.63;;;13.13;;
12892;SDS011;6514;48.606;9.222;2024-01-10T07:33:09;28.23;;;16.17;;
12892;SDS011;6514;48.606;9.222;2024-01-10T07:35:38;28.23;;;13.13;;
12892;SDS011;6514;48.606;9.222;2024-01-10T07:38:05;20.17;;;12.40;;
12892;SDS011;6514;48.606;9.222;2024-01-10T07:40:33;20.23;;;11.67;;
12892;SDS011;6514;48.606;9.222;2024-01-10T07:43:01;17.13;;;11.10;;
12892;SDS011;6514;48.606;9.222;2024-01-10T07:45:28;20.73;;;10.83;;
12892;SDS011;6514;48.606;9.222;2024-01-10T07:47:58;17.40;;;11.07;;
12892;SDS011;6514;48.606;9.222;2024-01-10T07:50:25;18.17;;;10.57;;
12892;SDS011;6514;48.606;9.222;2024-01-10T07:52:54;18.73;;;10.23;;
12892;SDS011;6514;48.606;9.222;2024-01-10T07:55:26;19.07;;;10.27;;
12892;SDS011;6514;48.606;9.222;2024-01-10T07:57:54;17.90;;;11.27;;
12892;SDS011;6514;48.606;9.222;2024-01-10T08:00:21;18.90;;;11.07;;
12892;SDS011;6514;48.606;9.222;2024-01-10T08:02:48;30.73;;;16.03;;
12892;SDS011;6514;48.606;9.222;2024-01-10T08:05:15;36.07;;;17.43;;
12892;SDS011;6514;48.606;9.222;2024-01-10T08:07:42;29.10;;;16.67;;
12892;SDS011;6514;48.606;9.222;2024-01-10T08:10:10;28.90;;;15.73;;
12892;SDS011;6514;48.606;9.222;2024-01-10T08:12:38;28.30;;;16.90;;
12892;SDS011;6514;48.606;9.222;2024-01-10T08:15:06;25.83;;;15.50;;
12892;SDS011;6514;48.606;9.222;2024-01-10T08:17:33;22.27;;;13.10;;
12892;SDS011;6514;48.606;9.222;2024-01-10T08:20:02;19.97;;;12.13;;
12892;SDS011;6514;48.606;9.222;2024-01-10T08:22:31;21.60;;;11.43;;
12892;SDS011;6514;48.606;9.222;2024-01-10T08:24:58;19.20;;;12.43;;
12892;SDS011;6514;48.606;9.222;2024-01-10T08:27:26;19.43;;;11.53;;
12892;SDS011;6514;48.606;9.222;2024-01-10T08:29:53;20.83;;;11.43;;
12892;SDS011;6514;48.606;9.222;2024-01-10T08:32:20;25.40;;;12.93;;
12892;SDS011;6514;48.606;9.222;2024-01-10T08:34:48;23.70;;;12.83;;
12892;SDS011;6514;48.606;9.222;2024-01-10T08:37:14;21.23;;;12.40;;
12892;SDS011;6514;48.606;9.222;2024-01-10T08:39:42;25.50;;;13.80;;
12892;SDS011;6514;48.606;9.222;2024-01-10T08:42:09;24.50;;;13.77;;
12892;SDS011;6514;48.606;9.222;2024-01-10T08:44:37;22.27;;;12.90;;
12892;SDS011;6514;48.606;9.222;2024-01-10T08:47:04;24.50;;;12.77;;
12892;SDS011;6514;48.606;9.222;2024-01-10T08:49:31;24.43;;;13.47;;
12892;SDS011;6514;48.606;9.222;2024-01-10T08:51:58;23.60;;;13.37;;
12892;SDS011;6514;48.606;9.222;2024-01-10T08:54:25;22.53;;;12.63;;
12892;SDS011;6514;48.606;9.222;2024-01-10T08:56:52;20.43;;;12.60;;
12892;SDS011;6514;48.606;9.222;2024-01-10T08:59:19;22.80;;;13.20;;
12892;SDS011;6514;48.606;9.222;2024-01-10T09:01:48;22.97;;;14.07;;
12892;SDS011;6514;48.606;9.222;2024-01-10T09:04:14;22.07;;;12.53;;
12892;SDS011;6514;48.606;9.222;2024-01-10T09:06:41;23.07;;;13.23;;
12892;SDS011;6514;48.606;9.222;2024-01-10T09:09:09;18.47;;;12.20;;
12892;SDS011;6514;48.606;9.222;2024-01-10T09:11:38;22.47;;;12.47;;
12892;SDS011;6514;48.606;9.222;2024-01-10T09:14:05;22.73;;;14.13;;
12892;SDS011;6514;48.606;9.222;2024-01-10T09:16:33;23.90;;;14.17;;
12892;SDS011;6514;48.606;9.222;2024-01-10T09:19:02;24.20;;;14.53;;
12892;SDS011;6514;48.606;9.222;2024-01-10T09:21:28;20.97;;;13.77;;
12892;SDS011;6514;48.606;9.222;2024-01-10T09:23:55;21.57;;;13.53;;
12892;SDS011;6514;48.606;9.222;2024-01-10T09:26:22;21.13;;;13.20;;
12892;SDS011;6514;48.606;9.222;2024-01-10T09:28:49;22.83;;;13.07;;
12892;SDS011;6514;48.606;9.222;2024-01-10T09:31:17;27.97;;;14.20;;
12892;SDS011;6514;48.606;9.222;2024-01-10T09:33:44;21.60;;;12.83;;
12892;SDS011;6514;48.606;9.222;2024-01-10T09:36:12;27.03;;;14.30;;
12892;SDS011;6514;48.606;9.222;2024-01-10T09:38:39;25.53;;;14.40;;
12892;SDS011;6514;48.606;9.222;2024-01-10T09:41:06;26.20;;;14.43;;
12892;SDS011;6514;48.606;9.222;2024-01-10T09:43:33;22.77;;;14.50;;
12892;SDS011;6514;48.606;9.222;2024-01-10T09:46:00;22.27;;;14.53;;
12892;SDS011;6514;48.606;9.222;2024-01-10T09:48:28;26.63;;;14.73;;
12892;SDS011;6514;48.606;9.222;2024-01-10T09:50:56;26.97;;;13.97;;
12892;SDS011;6514;48.606;9.222;2024-01-10T09:53:25;21.43;;;13.97;;
12892;SDS011;6514;48.606;9.222;2024-01-10T09:55:52;22.87;;;14.50;;
12892;SDS011;6514;48.606;9.222;2024-01-10T09:58:21;24.47;;;14.47;;
12892;SDS011;6514;48.606;9.222;2024-01-10T10:00:50;22.63;;;14.43;;
12892;SDS011;6514;48.606;9.222;2024-01-10T10:03:18;21.83;;;13.43;;
12892;SDS011;6514;48.606;9.222;2024-01-10T10:05:45;23.00;;;14.33;;
12892;SDS011;6514;48.606;9.222;2024-01-10T10:08:13;22.57;;;13.23;;
12892;SDS011;6514;48.606;9.222;2024-01-10T10:10:46;21.33;;;13.23;;
12892;SDS011;6514;48.606;9.222;2024-01-10T10:13:23;22.83;;;14.00;;
12892;SDS011;6514;48.606;9.222;2024-01-10T10:15:57;23.60;;;13.90;;
12892;SDS011;6514;48.606;9.222;2024-01-10T10:18:25;24.97;;;13.97;;
12892;SDS011;6514;48.606;9.222;2024-01-10T10:21:05;23.00;;;12.90;;
12892;SDS011;6514;48.606;9.222;2024-01-10T10:23:33;23.40;;;13.70;;
12892;SDS011;6514;48.606;9.222;2024-01-10T10:26:10;25.63;;;14.70;;
12892;SDS011;6514;48.606;9.222;2024-01-10T10:28:39;21.97;;;13.37;;
12892;SDS011;6514;48.606;9.222;2024-01-10T10:31:07;21.13;;;13.63;;
12892;SDS011;6514;48.606;9.222;2024-01-10T10:33:34;24.60;;;13.93;;
12892;SDS011;6514;48.606;9.222;2024-01-10T10:36:01;21.50;;;13.27;;
12892;SDS011;6514;48.606;9.222;2024-01-10T10:38:28;20.03;;;13.77;;
12892;SDS011;6514;48.606;9.222;2024-01-10T10:40:55;25.37;;;14.40;;
12892;SDS011;6514;48.606;9.222;2024-01-10T10:43:25;25.07;;;14.53;;
12892;SDS011;6514;48.606;9.222;2024-01-10T10:45:52;23.23;;;13.93;;
12892;SDS011;6514;48.606;9.222;2024-01-10T10:48:20;25.90;;;15.17;;
12892;SDS011;6514;48.606;9.222;2024-01-10T10:50:50;24.20;;;14.77;;
12892;SDS011;6514;48.606;9.222;2024-01-10T10:53:22;23.83;;;14.13;;
12892;SDS011;6514;48.606;9.222;2024-01-10T10:55:51;21.10;;;13.60;;
12892;SDS011;6514;48.606;9.222;2024-01-10T10:58:19;23.47;;;14.70;;
12892;SDS011;6514;48.606;9.222;2024-01-10T11:00:48;24.87;;;14.00;;
12892;SDS011;6514;48.606;9.222;2024-01-10T11:03:16;23.07;;;14.13;;
12892;SDS011;6514;48.606;9.222;2024-01-10T11:05:44;21.07;;;12.97;;
12892;SDS011;6514;48.606;9.222;2024-01-10T11:08:14;20.80;;;14.23;;
12892;SDS011;6514;48.606;9.222;2024-01-10T11:10:43;22.20;;;13.33;;
12892;SDS011;6514;48.606;9.222;2024-01-10T11:13:25;23.83;;;13.33;;
12892;SDS011;6514;48.606;9.222;2024-01-10T11:16:04;23.27;;;13.43;;
12892;SDS011;6514;48.606;9.222;2024-01-10T11:18:51;21.93;;;12.50;;
12892;SDS011;6514;48.606;9.222;2024-01-10T11:21:33;22.53;;;12.93;;
12892;SDS011;6514;48.606;9.222;2024-01-10T11:24:14;20.83;;;12.77;;
12892;SDS011;6514;48.606;9.222;2024-01-10T11:26:41;19.00;;;12.80;;
12892;SDS011;6514;48.606;9.222;2024-01-10T11:29:08;21.43;;;13.13;;
12892;SDS011;6514;48.606;9.222;2024-01-10T11:31:39;21.73;;;12.67;;
12892;SDS011;6514;48.606;9.222;2024-01-10T11:34:06;17.13;;;11.03;;
12892;SDS011;6514;48.606;9.222;2024-01-10T11:36:38;19.90;;;11.90;;
12892;SDS011;6514;48.606;9.222;2024-01-10T11:39:05;17.63;;;11.20;;
12892;SDS011;6514;48.606;9.222;2024-01-10T11:41:33;21.53;;;11.60;;
12892;SDS011;6514;48.606;9.222;2024-01-10T11:46:54;19.30;;;11.87;;
12892;SDS011;6514;48.606;9.222;2024-01-10T11:49:22;17.20;;;10.20;;
12892;SDS011;6514;48.606;9.222;2024-01-10T11:51:49;19.80;;;11.43;;
12892;SDS011;6514;48.606;9.222;2024-01-10T11:57:08;20.27;;;10.93;;
12892;SDS011;6514;48.606;9.222;2024-01-10T11:59:36;16.87;;;10.30;;
12892;SDS011;6514;48.606;9.222;2024-01-10T12:02:05;18.03;;;10.87;;
12892;SDS011;6514;48.606;9.222;2024-01-10T12:04:36;16.17;;;10.20;;
12892;SDS011;6514;48.606;9.222;2024-01-10T12:07:07;17.37;;;10.40;;
12892;SDS011;6514;48.606;9.222;2024-01-10T12:09:34;16.40;;;10.53;;
12892;SDS011;6514;48.606;9.222;2024-01-10T12:12:03;16.73;;;10.33;;
12892;SDS011;6514;48.606;9.222;2024-01-10T12:14:31;16.33;;;10.57;;
12892;SDS011;6514;48.606;9.222;2024-01-10T12:16:58;17.80;;;10.80;;
12892;SDS011;6514;48.606;9.222;2024-01-10T12:19:27;19.53;;;11.83;;
12892;SDS011;6514;48.606;9.222;2024-01-10T12:21:54;16.47;;;10.93;;
12892;SDS011;6514;48.606;9.222;2024-01-10T12:24:20;17.37;;;11.27;;
12892;SDS011;6514;48.606;9.222;2024-01-10T12:26:48;18.17;;;11.20;;
12892;SDS011;6514;48.606;9.222;2024-01-10T12:29:16;15.77;;;11.43;;
12892;SDS011;6514;48.606;9.222;2024-01-10T12:31:45;19.03;;;10.87;;
12892;SDS011;6514;48.606;9.222;2024-01-10T12:34:12;17.07;;;10.97;;
12892;SDS011;6514;48.606;9.222;2024-01-10T12:36:40;19.10;;;11.37;;
12892;SDS011;6514;48.606;9.222;2024-01-10T12:39:07;22.70;;;11.33;;
12892;SDS011;6514;48.606;9.222;2024-01-10T12:41:34;18.83;;;10.80;;
12892;SDS011;6514;48.606;9.222;2024-01-10T12:44:02;18.03;;;11.10;;
12892;SDS011;6514;48.606;9.222;2024-01-10T12:46:31;15.83;;;10.37;;
12892;SDS011;6514;48.606;9.222;2024-01-10T12:48:59;17.67;;;11.07;;
12892;SDS011;6514;48.606;9.222;2024-01-10T12:51:27;19.27;;;11.60;;
12892;SDS011;6514;48.606;9.222;2024-01-10T12:53:56;19.90;;;11.07;;
12892;SDS011;6514;48.606;9.222;2024-01-10T12:56:24;15.40;;;10.33;;
12892;SDS011;6514;48.606;9.222;2024-01-10T12:58:54;14.93;;;9.87;;
12892;SDS011;6514;48.606;9.222;2024-01-10T13:01:27;17.30;;;10.83;;
12892;SDS011;6514;48.606;9.222;2024-01-10T13:03:56;15.47;;;10.97;;
12892;SDS011;6514;48.606;9.222;2024-01-10T13:06:23;18.30;;;10.67;;
12892;SDS011;6514;48.606;9.222;2024-01-10T13:08:50;18.93;;;10.50;;
12892;SDS011;6514;48.606;9.222;2024-01-10T13:11:18;18.50;;;11.63;;
12892;SDS011;6514;48.606;9.222;2024-01-10T13:13:45;20.53;;;11.73;;
12892;SDS011;6514;48.606;9.222;2024-01-10T13:16:13;16.63;;;11.23;;
12892;SDS011;6514;48.606;9.222;2024-01-10T13:18:39;21.30;;;12.23;;
12892;SDS011;6514;48.606;9.222;2024-01-10T13:21:06;22.57;;;12.33;;
12892;SDS011;6514;48.606;9.222;2024-01-10T13:23:33;17.93;;;11.50;;
12892;SDS011;6514;48.606;9.222;2024-01-10T13:26:01;22.07;;;12.87;;
12892;SDS011;6514;48.606;9.222;2024-01-10T13:28:29;22.23;;;12.80;;
12892;SDS011;6514;48.606;9.222;2024-01-10T13:30:56;24.23;;;13.67;;
12892;SDS011;6514;48.606;9.222;2024-01-10T13:33:28;19.50;;;12.27;;
12892;SDS011;6514;48.606;9.222;2024-01-10T13:35:55;19.40;;;11.70;;
12892;SDS011;6514;48.606;9.222;2024-01-10T13:38:22;17.43;;;10.27;;
12892;SDS011;6514;48.606;9.222;2024-01-10T13:40:51;16.10;;;10.23;;
12892;SDS011;6514;48.606;9.222;2024-01-10T13:43:18;17.83;;;10.97;;
12892;SDS011;6514;48.606;9.222;2024-01-10T13:45:47;17.13;;;10.90;;
12892;SDS011;6514;48.606;9.222;2024-01-10T13:48:14;21.70;;;12.43;;
12892;SDS011;6514;48.606;9.222;2024-01-10T13:50:51;20.57;;;11.87;;
12892;SDS011;6514;48.606;9.222;2024-01-10T13:53:18;21.93;;;12.73;;
12892;SDS011;6514;48.606;9.222;2024-01-10T13:55:45;21.77;;;12.97;;
12892;SDS011;6514;48.606;9.222;2024-01-10T13:58:12;24.43;;;13.43;;
12892;SDS011;6514;48.606;9.222;2024-01-10T14:00:46;26.63;;;14.97;;
12892;SDS011;6514;48.606;9.222;2024-01-10T14:03:14;23.00;;;13.43;;
12892;SDS011;6514;48.606;9.222;2024-01-10T14:05:41;21.80;;;13.20;;
12892;SDS011;6514;48.606;9.222;2024-01-10T14:08:08;22.87;;;13.60;;
12892;SDS011;6514;48.606;9.222;2024-01-10T14:10:35;24.07;;;14.10;;
12892;SDS011;6514;48.606;9.222;2024-01-10T14:13:04;24.57;;;14.67;;
12892;SDS011;6514;48.606;9.222;2024-01-10T14:15:30;22.60;;;13.53;;
12892;SDS011;6514;48.606;9.222;2024-01-10T14:17:59;22.17;;;14.60;;
12892;SDS011;6514;48.606;9.222;2024-01-10T14:20:25;22.83;;;14.73;;
12892;SDS011;6514;48.606;9.222;2024-01-10T14:22:52;22.47;;;14.10;;
12892;SDS011;6514;48.606;9.222;2024-01-10T14:25:19;24.57;;;14.30;;
12892;SDS011;6514;48.606;9.222;2024-01-10T14:27:48;25.37;;;14.40;;
12892;SDS011;6514;48.606;9.222;2024-01-10T14:30:16;24.30;;;14.17;;
12892;SDS011;6514;48.606;9.222;2024-01-10T14:32:44;23.87;;;14.50;;
12892;SDS011;6514;48.606;9.222;2024-01-10T14:35:13;28.00;;;14.97;;
12892;SDS011;6514;48.606;9.222;2024-01-10T14:37:40;25.17;;;14.27;;
12892;SDS011;6514;48.606;9.222;2024-01-10T14:40:07;22.17;;;14.33;;
12892;SDS011;6514;48.606;9.222;2024-01-10T14:42:36;23.10;;;14.23;;
12892;SDS011;6514;48.606;9.222;2024-01-10T14:45:03;21.67;;;13.40;;